createdAt,value
2019-05-30T00:01:01.902Z,95798.13
2019-05-30T00:03:31.570Z,95799.63
2019-05-30T00:06:02.355Z,95797.29
2019-05-30T00:08:31.996Z,95798.56
2019-05-30T00:11:02.661Z,95796.51
2019-05-30T00:13:33.337Z,95795.13
2019-05-30T00:16:03.049Z,95804.28
2019-05-30T00:18:32.485Z,95800.91
2019-05-30T00:21:02.911Z,95801.03
2019-05-30T00:23:32.445Z,95806.14
2019-05-30T00:26:03.361Z,95804.55
2019-05-30T00:28:32.919Z,95802.41
2019-05-30T00:31:02.609Z,95810.55
2019-05-30T00:33:32.067Z,95809.33
2019-05-30T00:36:01.865Z,95799.69
2019-05-30T00:38:31.318Z,95802.98
2019-05-30T00:41:01.995Z,95805.34
2019-05-30T00:43:31.590Z,95804.19
2019-05-30T00:46:02.135Z,95806.16
2019-05-30T00:48:31.646Z,95798.84
2019-05-30T00:51:02.576Z,95798.42
2019-05-30T00:53:32.548Z,95801.31
2019-05-30T00:56:03.090Z,95802.95
2019-05-30T00:58:32.687Z,95799.67
2019-05-30T01:01:03.072Z,95801.09
2019-05-30T01:03:32.638Z,95802.15
2019-05-30T01:06:02.980Z,95800.53
2019-05-30T01:08:32.484Z,95803.00
2019-05-30T01:11:03.148Z,95799.16
2019-05-30T01:13:32.810Z,95805.53
2019-05-30T01:16:03.205Z,95810.02
2019-05-30T01:18:32.781Z,95806.36
2019-05-30T01:21:03.269Z,95805.56
2019-05-30T01:23:32.830Z,95803.91
2019-05-30T01:26:03.432Z,95805.56
2019-05-30T01:28:32.994Z,95802.23
2019-05-30T01:31:05.575Z,95805.97
2019-05-30T01:33:33.728Z,95799.13
2019-05-30T01:36:03.767Z,95802.05
2019-05-30T01:38:33.355Z,95805.48
2019-05-30T01:41:04.153Z,95809.21
2019-05-30T01:43:33.711Z,95809.77
2019-05-30T01:46:04.247Z,95804.66
2019-05-30T01:48:33.804Z,95805.39
2019-05-30T01:51:04.489Z,95799.06
2019-05-30T01:53:34.044Z,95798.80
2019-05-30T01:56:04.720Z,95793.63
2019-05-30T01:58:34.402Z,95788.96
2019-05-30T02:01:18.949Z,95787.92
2019-05-30T02:03:35.151Z,95802.24
2019-05-30T02:06:05.560Z,95792.05
2019-05-30T02:08:35.149Z,95790.75
2019-05-30T02:11:05.483Z,95794.02
2019-05-30T02:13:35.008Z,95795.19
2019-05-30T02:16:05.698Z,95795.52
2019-05-30T02:18:35.359Z,95792.95
2019-05-30T02:21:05.860Z,95798.00
2019-05-30T02:23:35.424Z,95799.81
2019-05-30T02:26:06.201Z,95804.58
2019-05-30T02:28:35.789Z,95805.11
2019-05-30T02:31:06.983Z,95810.95
2019-05-30T02:33:36.616Z,95811.69
2019-05-30T02:36:07.856Z,95811.63
2019-05-30T02:38:37.381Z,95813.78
2019-05-30T02:41:08.123Z,95810.48
2019-05-30T02:43:38.140Z,95810.89
2019-05-30T02:46:08.427Z,95807.61
2019-05-30T02:48:57.496Z,95811.72
2019-05-30T02:51:10.829Z,95816.26
2019-05-30T02:53:42.105Z,95816.55
2019-05-30T02:56:12.725Z,95812.00
2019-05-30T02:58:42.376Z,95818.63
2019-05-30T03:01:14.502Z,95817.14
2019-05-30T03:03:43.812Z,95819.61
2019-05-30T03:06:14.544Z,95819.35
2019-05-30T03:08:44.104Z,95819.35
2019-05-30T03:11:15.569Z,95823.92
2019-05-30T03:13:45.013Z,95822.48
2019-05-30T03:16:15.586Z,95825.21
2019-05-30T03:18:45.088Z,95828.23
2019-05-30T03:21:15.644Z,95826.74
2019-05-30T03:23:45.499Z,95832.83
2019-05-30T03:26:16.094Z,95828.37
2019-05-30T03:28:45.925Z,95833.47
2019-05-30T03:31:27.720Z,95830.89
2019-05-30T03:33:49.030Z,95834.95
2019-05-30T03:36:28.279Z,95845.02
2019-05-30T03:38:49.817Z,95840.13
2019-05-30T03:41:19.661Z,95838.08
2019-05-30T03:43:49.223Z,95838.98
2019-05-30T03:46:25.693Z,95842.06
2019-05-30T03:48:58.290Z,95839.45
2019-05-30T03:51:29.712Z,95845.28
2019-05-30T03:54:00.749Z,95842.96
2019-05-30T03:56:49.606Z,95845.54
2019-05-30T03:59:29.778Z,95852.89
2019-05-30T04:02:19.015Z,95853.00
2019-05-30T04:05:06.674Z,95854.77
2019-05-30T04:07:41.257Z,95853.48
2019-05-30T04:10:11.570Z,95859.33
2019-05-30T04:12:48.954Z,95859.73
2019-05-30T04:15:35.287Z,95858.17
2019-05-30T04:18:04.773Z,95863.73
2019-05-30T04:20:34.325Z,95878.92
2019-05-30T04:23:03.829Z,95874.91
2019-05-30T04:25:33.315Z,95873.92
2019-05-30T04:28:02.812Z,95883.05
2019-05-30T04:30:32.555Z,95881.55
2019-05-30T04:33:17.151Z,95884.48
2019-05-30T04:35:33.252Z,95883.20
2019-05-30T04:38:02.763Z,95886.46
2019-05-30T04:40:32.264Z,95888.84
2019-05-30T04:43:01.763Z,95886.59
2019-05-30T04:45:31.240Z,95886.12
2019-05-30T04:48:00.740Z,95885.34
2019-05-30T04:50:30.221Z,95888.25
2019-05-30T04:52:59.703Z,95884.74
2019-05-30T04:55:29.270Z,95882.35
2019-05-30T04:57:58.757Z,95886.78
2019-05-30T05:00:28.403Z,95884.45
2019-05-30T05:02:57.880Z,95882.30
2019-05-30T05:05:27.342Z,95881.76
2019-05-30T05:07:56.834Z,95886.94
2019-05-30T05:10:27.087Z,95889.73
2019-05-30T05:12:56.886Z,95892.83
2019-05-30T05:15:26.420Z,95886.16
2019-05-30T05:17:55.913Z,95888.69
2019-05-30T05:20:25.385Z,95892.47
2019-05-30T05:22:54.879Z,95891.82
2019-05-30T05:25:25.122Z,95892.66
2019-05-30T05:27:54.609Z,95890.09
2019-05-30T05:30:24.469Z,95894.18
2019-05-30T05:32:53.935Z,95892.77
2019-05-30T05:35:23.412Z,95887.54
2019-05-30T05:37:53.246Z,95887.98
2019-05-30T05:40:22.721Z,95891.66
2019-05-30T05:42:52.283Z,95880.27
2019-05-30T05:45:22.824Z,95871.13
2019-05-30T05:47:52.388Z,95877.73
2019-05-30T05:50:22.551Z,95875.89
2019-05-30T05:52:52.121Z,95883.66
2019-05-30T05:55:22.831Z,95877.50
2019-05-30T05:57:52.479Z,95885.53
2019-05-30T06:00:23.293Z,95879.51
2019-05-30T06:02:53.031Z,95888.26
2019-05-30T06:05:22.514Z,95890.27
2019-05-30T06:07:52.017Z,95883.02
2019-05-30T06:10:21.885Z,95883.23
2019-05-30T06:12:51.455Z,95878.42
2019-05-30T06:15:20.950Z,95883.16
2019-05-30T06:17:50.445Z,95882.48
2019-05-30T06:20:21.242Z,95885.59
2019-05-30T06:22:50.760Z,95887.15
2019-05-30T06:25:22.323Z,95886.48
2019-05-30T06:27:51.622Z,95894.05
2019-05-30T06:30:22.434Z,95894.31
2019-05-30T06:32:51.866Z,95886.50
2019-05-30T06:35:21.843Z,95891.92
2019-05-30T06:37:52.400Z,95895.92
2019-05-30T06:40:23.623Z,95890.67
2019-05-30T06:42:53.204Z,95905.20
2019-05-30T06:45:24.059Z,95904.22
2019-05-30T06:47:54.127Z,95911.48
2019-05-30T06:50:24.723Z,95909.00
2019-05-30T06:52:54.174Z,95903.08
2019-05-30T06:55:23.680Z,95903.48
2019-05-30T06:57:54.416Z,95906.40
2019-05-30T07:00:26.446Z,95905.75
2019-05-30T07:02:56.061Z,95914.97
2019-05-30T07:05:27.639Z,95917.61
2019-05-30T07:07:56.831Z,95915.98
2019-05-30T07:10:26.836Z,95917.08
2019-05-30T07:12:56.333Z,95916.42
2019-05-30T07:15:27.143Z,95919.30
2019-05-30T07:17:56.856Z,95918.59
2019-05-30T07:20:27.475Z,95906.31
2019-05-30T07:22:56.991Z,95911.78
2019-05-30T07:25:27.777Z,95910.82
2019-05-30T07:27:57.314Z,95923.66
2019-05-30T07:30:27.950Z,95922.17
2019-05-30T07:32:57.482Z,95920.03
2019-05-30T07:35:27.950Z,95922.86
2019-05-30T07:37:57.446Z,95924.30
2019-05-30T07:40:28.613Z,95919.86
2019-05-30T07:42:58.153Z,95918.27
2019-05-30T07:45:28.921Z,95916.21
2019-05-30T07:47:58.461Z,95910.75
2019-05-30T07:50:28.382Z,95917.31
2019-05-30T07:52:57.915Z,95922.06
2019-05-30T07:55:27.388Z,95916.78
2019-05-30T07:57:56.886Z,95917.94
2019-05-30T08:00:27.396Z,95919.69
2019-05-30T08:02:56.956Z,95921.69
2019-05-30T08:05:26.751Z,95915.61
2019-05-30T08:07:56.383Z,95916.03
2019-05-30T08:10:25.902Z,95913.46
2019-05-30T08:12:55.410Z,95913.34
2019-05-30T08:15:25.635Z,95910.67
2019-05-30T08:17:55.107Z,95915.13
2019-05-30T08:20:24.595Z,95912.22
2019-05-30T08:22:54.076Z,95913.73
2019-05-30T08:25:23.572Z,95910.23
2019-05-30T08:27:53.066Z,95909.94
2019-05-30T08:30:23.068Z,95918.58
2019-05-30T08:32:52.537Z,95914.67
2019-05-30T08:35:22.206Z,95922.42
2019-05-30T08:37:51.711Z,95921.75
2019-05-30T08:40:22.153Z,95923.92
2019-05-30T08:42:51.643Z,95924.14
2019-05-30T08:45:22.173Z,95921.50
2019-05-30T08:47:51.683Z,95923.29
2019-05-30T08:50:21.766Z,95916.88
2019-05-30T08:52:51.253Z,95920.30
2019-05-30T08:55:20.808Z,95923.63
2019-05-30T08:57:52.685Z,95928.55
2019-05-30T09:00:22.993Z,95925.34
2019-05-30T09:02:52.585Z,95926.00
2019-05-30T09:05:22.147Z,95921.63
2019-05-30T09:07:52.131Z,95922.55
2019-05-30T09:10:21.768Z,95925.57
2019-05-30T09:12:51.325Z,95925.19
2019-05-30T09:15:22.143Z,95924.70
2019-05-30T09:17:52.245Z,95921.50
2019-05-30T09:20:22.228Z,95925.21
2019-05-30T09:22:51.714Z,95923.22
2019-05-30T09:25:22.953Z,95923.97
2019-05-30T09:27:52.643Z,95922.25
2019-05-30T09:30:22.367Z,95926.50
2019-05-30T09:32:51.914Z,95928.59
2019-05-30T09:35:21.732Z,95926.91
2019-05-30T09:37:51.208Z,95928.27
2019-05-30T09:40:23.995Z,95926.22
2019-05-30T09:42:53.482Z,95923.09
2019-05-30T09:45:23.800Z,95925.33
2019-05-30T09:47:53.277Z,95919.48
2019-05-30T09:50:22.958Z,95923.30
2019-05-30T09:52:52.513Z,95926.31
2019-05-30T09:55:22.438Z,95928.89
2019-05-30T09:57:53.152Z,95927.83
2019-05-30T10:00:24.455Z,95922.83
2019-05-30T10:02:53.970Z,95926.09
2019-05-30T10:05:24.821Z,95921.73
2019-05-30T10:07:54.468Z,95924.69
2019-05-30T10:10:24.203Z,95926.11
2019-05-30T10:12:53.685Z,95921.70
2019-05-30T10:15:23.590Z,95925.58
2019-05-30T10:17:54.464Z,95920.41
2019-05-30T10:20:24.384Z,95921.80
2019-05-30T10:22:54.007Z,95919.85
2019-05-30T10:25:23.857Z,95921.30
2019-05-30T10:27:54.861Z,95922.79
2019-05-30T10:30:26.320Z,95926.41
2019-05-30T10:32:56.071Z,95926.38
2019-05-30T10:35:29.456Z,95919.98
2019-05-30T10:37:58.148Z,95920.11
2019-05-30T10:40:27.967Z,95916.68
2019-05-30T10:42:57.444Z,95919.64
2019-05-30T10:45:28.703Z,95914.33
2019-05-30T10:47:58.177Z,95911.66
2019-05-30T10:50:28.143Z,95909.88
2019-05-30T10:52:57.628Z,95905.56
2019-05-30T10:55:28.133Z,95899.24
2019-05-30T10:57:59.530Z,95900.25
2019-05-30T11:00:55.896Z,95904.48
2019-05-30T11:03:27.974Z,95905.89
2019-05-30T11:06:19.808Z,95912.83
2019-05-30T11:08:52.769Z,95905.43
2019-05-30T11:11:22.328Z,95901.98
2019-05-30T11:13:53.189Z,95901.55
2019-05-30T11:16:23.309Z,95892.25
2019-05-30T11:18:54.250Z,95885.72
2019-05-30T11:21:23.955Z,95882.36
2019-05-30T11:23:54.401Z,95889.66
2019-05-30T11:26:23.923Z,95888.35
2019-05-30T11:28:54.670Z,95880.20
2019-05-30T11:31:24.290Z,95880.00
2019-05-30T11:33:54.978Z,95874.77
2019-05-30T11:36:24.547Z,95877.57
2019-05-30T11:38:55.264Z,95872.67
2019-05-30T11:41:24.795Z,95862.75
2019-05-30T11:43:55.576Z,95873.08
2019-05-30T11:46:25.128Z,95863.48
2019-05-30T11:48:55.670Z,95854.81
2019-05-30T11:51:25.162Z,95857.07
2019-05-30T11:53:55.821Z,95850.30
2019-05-30T11:56:25.326Z,95849.34
2019-05-30T11:58:55.924Z,95841.03
2019-05-30T12:01:25.475Z,95838.87
2019-05-30T12:03:54.953Z,95840.39
2019-05-30T12:06:24.612Z,95853.15
2019-05-30T12:08:54.730Z,95840.83
2019-05-30T12:11:24.262Z,95845.14
2019-05-30T12:13:53.738Z,95839.87
2019-05-30T12:16:23.236Z,95840.53
2019-05-30T12:18:53.958Z,95843.48
2019-05-30T12:21:23.498Z,95835.11
2019-05-30T12:23:54.458Z,95835.23
2019-05-30T12:26:24.025Z,95842.49
2019-05-30T12:28:54.087Z,95849.42
2019-05-30T12:31:23.754Z,95842.88
2019-05-30T12:33:54.248Z,95849.59
2019-05-30T12:36:23.739Z,95846.73
2019-05-30T12:38:54.327Z,95855.12
2019-05-30T12:41:23.801Z,95854.84
2019-05-30T12:43:53.312Z,95854.75
2019-05-30T12:46:22.794Z,95856.36
2019-05-30T12:48:53.295Z,95855.22
2019-05-30T12:51:22.897Z,95849.05
2019-05-30T12:53:52.366Z,95857.25
2019-05-30T12:56:21.857Z,95852.74
2019-05-30T12:58:51.367Z,95850.62
2019-05-30T13:01:20.870Z,95853.47
2019-05-30T13:03:50.420Z,95849.72
2019-05-30T13:06:19.908Z,95838.91
2019-05-30T13:08:49.396Z,95838.41
2019-05-30T13:11:18.896Z,95834.86
2019-05-30T13:13:48.389Z,95837.63
2019-05-30T13:16:17.894Z,95830.83
2019-05-30T13:18:47.386Z,95824.56
2019-05-30T13:21:16.884Z,95827.47
2019-05-30T13:23:46.373Z,95821.98
2019-05-30T13:26:15.837Z,95826.55
2019-05-30T13:28:45.335Z,95827.27
2019-05-30T13:31:14.813Z,95825.09
2019-05-30T13:33:44.313Z,95825.41
2019-05-30T13:36:13.902Z,95819.70
2019-05-30T13:38:43.390Z,95824.75
2019-05-30T13:41:14.206Z,95818.18
2019-05-30T13:43:43.732Z,95825.66
2019-05-30T13:46:13.215Z,95824.30
2019-05-30T13:48:42.707Z,95826.60
2019-05-30T13:51:12.194Z,95822.07
2019-05-30T13:53:42.804Z,95825.95
2019-05-30T13:56:12.299Z,95831.06
2019-05-30T13:58:41.793Z,95827.41
2019-05-30T14:01:13.874Z,95822.27
2019-05-30T14:03:42.489Z,95826.86
2019-05-30T14:06:11.972Z,95821.65
2019-05-30T14:08:42.210Z,95816.91
2019-05-30T14:11:11.728Z,95814.98
2019-05-30T14:13:41.293Z,95817.13
2019-05-30T14:16:11.059Z,95811.13
2019-05-30T14:18:40.642Z,95813.34
2019-05-30T14:21:11.478Z,95814.86
2019-05-30T14:23:41.115Z,95811.90
2019-05-30T14:26:11.610Z,95815.81
2019-05-30T14:28:41.164Z,95811.88
2019-05-30T14:31:11.904Z,95811.38
2019-05-30T14:33:41.850Z,95815.22
2019-05-30T14:36:14.247Z,95814.67
2019-05-30T14:38:57.294Z,95819.10
2019-05-30T14:41:13.754Z,95821.97
2019-05-30T14:43:43.245Z,95828.11
2019-05-30T14:46:12.749Z,95826.56
2019-05-30T14:48:42.232Z,95832.99
2019-05-30T14:51:12.841Z,95823.59
2019-05-30T14:53:42.486Z,95825.56
2019-05-30T14:56:13.362Z,95829.04
2019-05-30T14:58:43.023Z,95814.60
2019-05-30T15:01:13.365Z,95820.51
2019-05-30T15:03:42.979Z,95823.75
2019-05-30T15:06:15.681Z,95826.39
2019-05-30T15:09:15.164Z,95824.52
2019-05-30T15:11:34.309Z,95821.83
2019-05-30T15:14:04.604Z,95824.77
2019-05-30T15:16:34.143Z,95821.72
2019-05-30T15:19:03.727Z,95823.67
2019-05-30T15:21:33.194Z,95825.70
2019-05-30T15:24:02.727Z,95818.86
2019-05-30T15:26:32.202Z,95807.63
2019-05-30T15:29:01.696Z,95812.01
2019-05-30T15:31:31.185Z,95810.30
2019-05-30T15:34:00.664Z,95809.80
2019-05-30T15:36:30.178Z,95816.50
2019-05-30T15:38:59.644Z,95817.77
2019-05-30T15:41:29.118Z,95809.17
2019-05-30T15:43:58.627Z,95806.95
2019-05-30T15:46:28.115Z,95805.83
2019-05-30T15:48:58.157Z,95801.71
2019-05-30T15:51:27.628Z,95805.83
2019-05-30T15:53:57.177Z,95799.33
2019-05-30T15:56:26.691Z,95806.08
2019-05-30T15:58:56.168Z,95809.54
2019-05-30T16:01:26.376Z,95804.97
2019-05-30T16:03:55.879Z,95804.84
2019-05-30T16:06:25.523Z,95811.64
2019-05-30T16:08:55.010Z,95810.00
2019-05-30T16:11:24.493Z,95812.91
2019-05-30T16:13:54.580Z,95816.45
2019-05-30T16:16:38.849Z,95815.81
2019-05-30T16:18:55.328Z,95814.05
2019-05-30T16:21:24.809Z,95804.38
2019-05-30T16:23:54.302Z,95807.97
2019-05-30T16:26:23.794Z,95807.66
2019-05-30T16:28:53.305Z,95804.50
2019-05-30T16:31:22.779Z,95813.30
2019-05-30T16:33:52.273Z,95811.95
2019-05-30T16:36:22.537Z,95808.77
2019-05-30T16:38:52.789Z,95806.23
2019-05-30T16:41:22.582Z,95812.80
2019-05-30T16:43:52.113Z,95808.47
2019-05-30T16:46:22.736Z,95806.41
2019-05-30T16:48:52.261Z,95802.42
2019-05-30T16:51:23.511Z,95799.13
2019-05-30T16:53:53.127Z,95800.87
2019-05-30T16:56:23.567Z,95801.37
2019-05-30T16:58:53.161Z,95804.40
2019-05-30T17:01:23.998Z,95808.52
2019-05-30T17:03:53.711Z,95810.14
2019-05-30T17:06:23.209Z,95817.48
2019-05-30T17:08:52.689Z,95819.59
2019-05-30T17:11:23.224Z,95812.38
2019-05-30T17:13:52.956Z,95820.03
2019-05-30T17:16:22.460Z,95819.70
2019-05-30T17:18:52.322Z,95815.72
2019-05-30T17:21:22.725Z,95818.02
2019-05-30T17:23:52.268Z,95817.05
2019-05-30T17:26:21.750Z,95818.53
2019-05-30T17:28:51.242Z,95815.76
2019-05-30T17:31:21.866Z,95822.40
2019-05-30T17:33:51.404Z,95821.40
2019-05-30T17:36:22.062Z,95829.22
2019-05-30T17:38:51.661Z,95831.84
2019-05-30T17:41:21.138Z,95827.39
2019-05-30T17:43:50.639Z,95830.77
2019-05-30T17:46:21.254Z,95830.55
2019-05-30T17:48:50.793Z,95825.08
2019-05-30T17:51:20.291Z,95826.00
2019-05-30T17:53:51.092Z,95825.39
2019-05-30T17:56:21.949Z,95825.05
2019-05-30T17:58:51.524Z,95832.96
2019-05-30T18:01:22.175Z,95824.82
2019-05-30T18:03:51.805Z,95828.02
2019-05-30T18:06:22.285Z,95826.50
2019-05-30T18:08:51.748Z,95831.48
2019-05-30T18:11:21.236Z,95833.39
2019-05-30T18:13:50.743Z,95839.37
2019-05-30T18:16:21.089Z,95835.77
2019-05-30T18:18:50.595Z,95838.54
2019-05-30T18:21:21.148Z,95839.25
2019-05-30T18:23:50.759Z,95840.20
2019-05-30T18:26:21.371Z,95843.69
2019-05-30T18:28:51.008Z,95845.09
2019-05-30T18:31:21.785Z,95843.34
2019-05-30T18:33:51.369Z,95848.58
2019-05-30T18:36:22.205Z,95839.24
2019-05-30T18:38:51.775Z,95840.23
2019-05-30T18:41:22.692Z,95852.94
2019-05-30T18:43:52.171Z,95848.73
2019-05-30T18:46:22.926Z,95848.28
2019-05-30T18:48:52.522Z,95842.42
2019-05-30T18:51:22.033Z,95848.56
2019-05-30T18:53:52.369Z,95851.20
2019-05-30T18:56:21.861Z,95847.94
2019-05-30T18:58:51.353Z,95850.52
2019-05-30T19:01:20.831Z,95851.34
2019-05-30T19:03:50.321Z,95857.52
2019-05-30T19:06:20.635Z,95862.03
2019-05-30T19:08:50.135Z,95863.44
2019-05-30T19:11:27.992Z,95868.63
2019-05-30T19:13:50.813Z,95862.42
2019-05-30T19:16:20.300Z,95865.47
2019-05-30T19:18:49.780Z,95877.47
2019-05-30T19:21:19.272Z,95878.23
2019-05-30T19:23:48.769Z,95877.33
2019-05-30T19:26:18.264Z,95882.04
2019-05-30T19:28:47.739Z,95891.07
2019-05-30T19:31:17.242Z,95883.05
2019-05-30T19:33:46.714Z,95892.34
2019-05-30T19:36:16.214Z,95894.31
2019-05-30T19:38:45.699Z,95901.72
2019-05-30T19:41:15.203Z,95894.80
2019-05-30T19:43:45.226Z,95900.14
2019-05-30T19:46:14.724Z,95906.58
2019-05-30T19:48:44.225Z,95905.05
2019-05-30T19:51:13.724Z,95909.20
2019-05-30T19:53:43.213Z,95915.43
2019-05-30T19:56:13.498Z,95915.59
2019-05-30T19:58:43.000Z,95919.23
2019-05-30T20:01:12.489Z,95917.48
2019-05-30T20:03:46.746Z,95924.44
2019-05-30T20:06:13.202Z,95926.39
2019-05-30T20:08:54.554Z,95928.27
2019-05-30T20:11:13.991Z,95927.36
2019-05-30T20:13:43.505Z,95933.88
2019-05-30T20:16:12.982Z,95932.03
2019-05-30T20:18:42.465Z,95942.77
2019-05-30T20:21:11.952Z,95949.99
2019-05-30T20:23:52.765Z,95946.73
2019-05-30T20:26:12.630Z,95952.63
2019-05-30T20:28:42.979Z,95955.41
2019-05-30T20:31:12.487Z,95954.78
2019-05-30T20:33:42.650Z,95959.06
2019-05-30T20:36:12.712Z,95961.68
2019-05-30T20:38:42.909Z,95959.06
2019-05-30T20:41:12.439Z,95964.30
2019-05-30T20:43:43.049Z,95969.06
2019-05-30T20:46:22.773Z,95968.41
2019-05-30T20:48:45.038Z,95972.67
2019-05-30T20:51:21.187Z,95958.92
2019-05-30T20:53:47.648Z,95953.66
2019-05-30T20:56:17.182Z,95954.87
2019-05-30T20:58:46.730Z,95958.39
2019-05-30T21:01:16.229Z,95959.59
2019-05-30T21:03:45.925Z,95961.20
2019-05-30T21:06:15.453Z,95962.65
2019-05-30T21:08:47.520Z,95964.13
2019-05-30T21:11:17.304Z,95966.03
2019-05-30T21:13:49.947Z,95959.81
2019-05-30T21:16:22.284Z,95961.73
2019-05-30T21:18:53.210Z,95964.33
2019-05-30T21:21:22.678Z,95964.55
2019-05-30T21:23:52.167Z,95968.00
2019-05-30T21:26:21.640Z,95971.98
2019-05-30T21:28:51.145Z,95973.56
2019-05-30T21:31:20.653Z,95970.64
2019-05-30T21:33:51.055Z,95972.08
2019-05-30T21:36:20.662Z,95973.39
2019-05-30T21:38:50.140Z,95982.98
2019-05-30T21:41:19.615Z,95978.86
2019-05-30T21:43:49.099Z,95973.91
2019-05-30T21:46:19.041Z,95978.11
2019-05-30T21:48:49.083Z,95981.75
2019-05-30T21:51:18.578Z,95985.73
2019-05-30T21:53:48.062Z,95982.59
2019-05-30T21:56:17.536Z,95990.23
2019-05-30T21:58:48.316Z,95989.54
2019-05-30T22:01:28.142Z,95989.81
2019-05-30T22:03:57.964Z,95986.92
2019-05-30T22:06:27.526Z,95987.88
2019-05-30T22:08:57.066Z,95984.19
2019-05-30T22:11:26.619Z,95990.69
2019-05-30T22:13:56.110Z,95990.40
2019-05-30T22:16:26.084Z,95988.85
2019-05-30T22:18:55.575Z,95995.09
2019-05-30T22:21:25.047Z,95990.08
2019-05-30T22:23:54.531Z,95992.36
2019-05-30T22:26:24.076Z,95989.12
2019-05-30T22:28:54.103Z,95983.15
2019-05-30T22:31:23.658Z,95982.23
2019-05-30T22:33:53.342Z,95983.67
2019-05-30T22:36:22.886Z,95975.47
2019-05-30T22:38:53.165Z,95983.95
2019-05-30T22:41:23.126Z,95987.64
2019-05-30T22:43:53.011Z,95989.11
2019-05-30T22:46:22.597Z,95988.42
2019-05-30T22:48:52.914Z,95982.23
2019-05-30T22:51:22.567Z,95988.83
2019-05-30T22:53:53.210Z,95991.70
2019-05-30T22:56:22.787Z,95996.25
2019-05-30T22:58:52.278Z,95999.14
2019-05-30T23:01:21.760Z,95999.14
2019-05-30T23:03:52.192Z,95997.00
2019-05-30T23:06:22.162Z,95993.91
2019-05-30T23:08:52.578Z,96000.59
2019-05-30T23:11:22.121Z,95999.17
2019-05-30T23:13:51.985Z,96001.73
2019-05-30T23:16:21.489Z,96003.30
2019-05-30T23:18:51.033Z,95998.83
2019-05-30T23:21:21.116Z,96000.62
2019-05-30T23:23:51.868Z,95999.76
2019-05-30T23:26:21.676Z,95997.98
2019-05-30T23:28:51.850Z,95999.44
2019-05-30T23:31:21.336Z,95992.78
2019-05-30T23:33:50.813Z,95988.75
2019-05-30T23:36:20.296Z,95987.52
2019-05-30T23:38:50.738Z,95987.25
2019-05-30T23:41:20.266Z,95987.43
2019-05-30T23:44:01.897Z,95980.85
2019-05-30T23:46:20.951Z,95989.45
2019-05-30T23:48:51.595Z,95990.58
2019-05-30T23:51:21.056Z,95989.75
2019-05-30T23:53:50.545Z,95985.67
2019-05-30T23:56:20.023Z,95990.41
2019-05-30T23:58:50.537Z,95980.65
